Time,TemperatureF,DewpointF,PressureIn,WindDirection,WindDirectionDegrees,WindSpeedMPH,WindSpeedGustMPH,Humidity,HourlyPrecipIn,Conditions,Clouds,dailyrainin,SoftwareType,DateUTC
2013-01-31 00:00:00,49.8,49.6,28.39,South,180,1.1,0.0,99,0.02,,SKC,1.28,WeatherDisplay:10.37,2013-01-31 05:00:00,
2013-01-31 00:01:00,49.8,49.6,28.39,South,180,1.1,0.0,99,0.02,RA,SKC,0.00,WeatherDisplay:10.37,2013-01-31 05:01:00,
2013-01-31 00:06:00,49.6,49.4,28.39,West,270,1.1,0.0,99,0.02,RA,SKC,0.00,WeatherDisplay:10.37,2013-01-31 05:06:00,
2013-01-31 00:11:00,49.5,49.2,28.38,SW,225,0.0,0.0,99,0.02,,SKC,0.00,WeatherDisplay:10.37,2013-01-31 05:11:00,
2013-01-31 00:16:00,49.5,49.2,28.40,West,270,1.1,0.0,99,0.02,,SKC,0.00,WeatherDisplay:10.37,2013-01-31 05:16:00,
2013-01-31 00:21:00,49.5,49.2,28.39,SW,225,1.1,1.1,99,0.01,,SKC,0.00,WeatherDisplay:10.37,2013-01-31 05:21:00,
2013-01-31 00:26:00,49.5,48.9,28.41,South,180,2.3,2.3,98,0.01,,SKC,0.00,WeatherDisplay:10.37,2013-01-31 05:26:00,
2013-01-31 00:31:00,49.3,49.0,28.42,SW,225,3.5,3.5,99,0.01,,SKC,0.00,WeatherDisplay:10.37,2013-01-31 05:31:00,
2013-01-31 00:36:00,49.5,48.6,28.41,South,180,3.5,3.5,97,0.01,,SKC,0.00,WeatherDisplay:10.37,2013-01-31 05:36:00,
2013-01-31 00:41:00,49.5,48.6,28.39,NE,45,3.5,3.5,97,0.01,,SKC,0.00,WeatherDisplay:10.37,2013-01-31 05:41:00,
2013-01-31 00:46:00,49.3,48.5,28.41,SW,225,3.5,3.5,97,0.00,,SKC,0.00,WeatherDisplay:10.37,2013-01-31 05:46:00,
2013-01-31 00:51:00,49.3,48.5,28.42,SW,225,5.8,5.8,97,0.00,,SKC,0.00,WeatherDisplay:10.37,2013-01-31 05:51:00,
2013-01-31 00:56:00,49.3,48.5,28.44,SW,225,2.3,2.3,97,0.00,,SKC,0.00,WeatherDisplay:10.37,2013-01-31 05:56:00,
2013-01-31 01:01:00,49.1,48.3,28.44,West,270,3.5,0.0,97,0.00,,SKC,0.00,WeatherDisplay:10.37,2013-01-31 06:01:00,
2013-01-31 01:06:00,49.1,48.3,28.44,West,270,1.1,0.0,97,0.00,,SKC,0.00,WeatherDisplay:10.37,2013-01-31 06:06:00,
2013-01-31 01:11:00,48.6,46.9,28.44,North,0,8.1,8.1,94,0.00,,SKC,0.00,WeatherDisplay:10.37,2013-01-31 06:11:00,
2013-01-31 01:16:00,47.8,44.8,28.45,SE,135,3.5,3.5,89,0.00,,SKC,0.00,WeatherDisplay:10.37,2013-01-31 06:16:00,
2013-01-31 01:21:00,47.3,43.3,28.45,SE,135,3.5,3.5,86,0.00,,SKC,0.00,WeatherDisplay:10.37,2013-01-31 06:21:00,
2013-01-31 01:26:00,46.9,43.0,28.45,NE,45,1.1,0.0,86,0.00,,SKC,0.00,WeatherDisplay:10.37,2013-01-31 06:26:00,
2013-01-31 01:31:00,46.6,42.3,28.45,South,180,1.1,0.0,85,0.00,,SKC,0.00,WeatherDisplay:10.37,2013-01-31 06:31:00,
2013-01-31 01:36:00,46.4,41.5,28.46,SW,225,1.1,0.0,83,0.00,,SKC,0.00,WeatherDisplay:10.37,2013-01-31 06:36:00,
2013-01-31 01:41:00,46.4,41.2,28.46,SW,225,1.1,0.0,82,0.00,,SKC,0.00,WeatherDisplay:10.37,2013-01-31 06:41:00,
2013-01-31 01:46:00,46.2,41.3,28.47,SW,225,1.1,0.0,83,0.00,,SKC,0.00,WeatherDisplay:10.37,2013-01-31 06:46:00,
2013-01-31 01:51:00,45.9,40.4,28.48,South,180,2.3,0.0,81,0.01,RA,SKC,0.01,WeatherDisplay:10.37,2013-01-31 06:51:00,
2013-01-31 01:56:00,45.9,40.0,28.48,NW,315,3.5,0.0,80,0.01,RA,SKC,0.01,WeatherDisplay:10.37,2013-01-31 06:56:00,
2013-01-31 02:01:00,45.9,39.1,28.49,West,270,3.5,3.5,77,0.01,,SKC,0.01,WeatherDisplay:10.37,2013-01-31 07:01:00,
2013-01-31 02:06:00,45.7,38.2,28.49,North,0,4.6,4.6,75,0.01,,SKC,0.01,WeatherDisplay:10.37,2013-01-31 07:06:00,
2013-01-31 02:12:00,45.3,37.2,28.49,NE,45,3.5,3.5,73,0.01,,SKC,0.01,WeatherDisplay:10.37,2013-01-31 07:12:00,
2013-01-31 02:17:00,45.1,37.0,28.50,NE,45,3.5,3.5,73,0.01,,SKC,0.01,WeatherDisplay:10.37,2013-01-31 07:17:00,
2013-01-31 02:22:00,45.0,36.5,28.50,SE,135,6.9,6.9,72,0.01,,SKC,0.01,WeatherDisplay:10.37,2013-01-31 07:22:00,
2013-01-31 02:27:00,44.6,36.1,28.50,SE,135,4.6,4.6,72,0.01,,SKC,0.01,WeatherDisplay:10.37,2013-01-31 07:27:00,
2013-01-31 02:32:00,44.4,35.2,28.50,NE,45,4.6,4.6,70,0.01,,SKC,0.01,WeatherDisplay:10.37,2013-01-31 07:32:00,
2013-01-31 02:37:00,44.4,35.2,28.51,West,270,4.6,4.6,70,0.01,,SKC,0.01,WeatherDisplay:10.37,2013-01-31 07:37:00,
2013-01-31 02:42:00,44.1,35.3,28.51,NW,315,3.5,3.5,71,0.01,,SKC,0.01,WeatherDisplay:10.37,2013-01-31 07:42:00,
2013-01-31 02:47:00,43.7,35.3,28.51,West,270,3.5,3.5,72,0.01,,SKC,0.01,WeatherDisplay:10.37,2013-01-31 07:47:00,
2013-01-31 02:52:00,43.9,34.0,28.52,WNW,292,4.6,4.6,68,0.00,,SKC,0.01,WeatherDisplay:10.37,2013-01-31 07:52:00,
2013-01-31 02:57:00,43.9,34.0,28.52,East,90,1.1,1.1,68,0.00,,SKC,0.01,WeatherDisplay:10.37,2013-01-31 07:57:00,
2013-01-31 03:02:00,43.7,34.6,28.53,SW,225,3.5,3.5,70,0.00,,SKC,0.01,WeatherDisplay:10.37,2013-01-31 08:02:00,
2013-01-31 03:07:00,43.7,34.6,28.53,SW,225,3.5,3.5,70,0.00,,SKC,0.01,WeatherDisplay:10.37,2013-01-31 08:07:00,
2013-01-31 03:12:00,43.5,35.1,28.54,SW,225,5.8,5.8,72,0.00,,SKC,0.01,WeatherDisplay:10.37,2013-01-31 08:12:00,
2013-01-31 03:17:00,43.3,34.2,28.54,SW,225,10.4,10.4,70,0.00,,SKC,0.01,WeatherDisplay:10.37,2013-01-31 08:17:00,
2013-01-31 03:22:00,43.3,34.2,28.55,NW,315,6.9,6.9,70,0.00,,SKC,0.01,WeatherDisplay:10.37,2013-01-31 08:22:00,
2013-01-31 03:27:00,43.2,33.7,28.56,NW,315,2.3,2.3,69,0.00,,SKC,0.01,WeatherDisplay:10.37,2013-01-31 08:27:00,
2013-01-31 03:32:00,43.0,33.1,28.57,West,270,3.5,0.0,68,0.00,,SKC,0.01,WeatherDisplay:10.37,2013-01-31 08:32:00,
2013-01-31 03:37:00,43.0,32.4,28.57,East,90,11.5,11.5,66,0.00,,SKC,0.01,WeatherDisplay:10.37,2013-01-31 08:37:00,
2013-01-31 03:42:00,43.0,31.6,28.58,NW,315,10.4,10.4,64,0.00,,SKC,0.01,WeatherDisplay:10.37,2013-01-31 08:42:00,
2013-01-31 03:47:00,43.0,31.6,28.58,North,0,5.8,5.8,64,0.00,,SKC,0.01,WeatherDisplay:10.37,2013-01-31 08:47:00,
2013-01-31 03:52:00,42.6,31.7,28.59,NNW,338,3.5,3.8,65,0.00,,SKC,0.01,WeatherDisplay:10.37,2013-01-31 08:52:00,
2013-01-31 03:57:00,42.4,30.7,28.59,SE,135,5.8,5.8,63,0.00,,SKC,0.01,WeatherDisplay:10.37,2013-01-31 08:57:00,
2013-01-31 04:02:00,41.9,30.2,28.60,NW,315,5.8,5.8,63,0.00,,SKC,0.01,WeatherDisplay:10.37,2013-01-31 09:02:00,
2013-01-31 04:07:00,41.5,28.3,28.60,NW,315,8.1,8.1,59,0.00,,SKC,0.01,WeatherDisplay:10.37,2013-01-31 09:07:00,
2013-01-31 04:12:00,41.5,27.4,28.61,North,0,8.1,8.1,57,0.00,,SKC,0.01,WeatherDisplay:10.37,2013-01-31 09:12:00,
2013-01-31 04:17:00,41.2,27.9,28.61,NW,315,3.5,3.5,59,0.00,,SKC,0.01,WeatherDisplay:10.37,2013-01-31 09:17:00,
2013-01-31 04:22:00,41.0,27.8,28.62,NW,315,8.1,8.1,59,0.00,,SKC,0.01,WeatherDisplay:10.37,2013-01-31 09:22:00,
2013-01-31 04:27:00,40.6,28.2,28.62,South,180,5.8,5.8,61,0.00,,SKC,0.01,WeatherDisplay:10.37,2013-01-31 09:27:00,
2013-01-31 04:32:00,40.5,27.7,28.63,SE,135,4.6,4.6,60,0.00,,SKC,0.01,WeatherDisplay:10.37,2013-01-31 09:32:00,
2013-01-31 04:37:00,40.1,27.7,28.63,North,0,5.8,5.8,61,0.00,,SKC,0.01,WeatherDisplay:10.37,2013-01-31 09:37:00,
2013-01-31 04:42:00,39.7,27.8,28.64,West,270,5.8,5.8,62,0.00,,SKC,0.01,WeatherDisplay:10.37,2013-01-31 09:42:00,
2013-01-31 04:47:00,39.6,28.0,28.64,North,0,3.5,3.5,63,0.00,,SKC,0.01,WeatherDisplay:10.37,2013-01-31 09:47:00,
2013-01-31 04:52:00,39.0,27.9,28.65,NW,315,5.8,5.8,64,0.00,,SKC,0.01,WeatherDisplay:10.37,2013-01-31 09:52:00,
2013-01-31 04:57:00,38.8,27.7,28.66,NW,315,3.5,3.5,64,0.00,,SKC,0.01,WeatherDisplay:10.37,2013-01-31 09:57:00,
2013-01-31 05:02:00,38.7,27.5,28.66,West,270,4.6,4.6,64,0.00,,SKC,0.01,WeatherDisplay:10.37,2013-01-31 10:02:00,
2013-01-31 05:07:00,38.7,27.5,28.67,West,270,4.6,4.6,64,0.00,,SKC,0.01,WeatherDisplay:10.37,2013-01-31 10:07:00,
2013-01-31 05:12:00,38.1,27.4,28.67,SW,225,10.4,10.4,65,0.00,,SKC,0.01,WeatherDisplay:10.37,2013-01-31 10:12:00,
2013-01-31 05:17:00,38.1,26.6,28.68,West,270,5.8,5.8,63,0.00,,SKC,0.01,WeatherDisplay:10.37,2013-01-31 10:17:00,
2013-01-31 05:22:00,37.9,26.5,28.68,NNE,22,3.5,3.5,63,0.00,,SKC,0.01,WeatherDisplay:10.37,2013-01-31 10:22:00,
2013-01-31 05:27:00,37.9,26.1,28.68,West,270,4.6,4.6,62,0.00,,SKC,0.01,WeatherDisplay:10.37,2013-01-31 10:27:00,
2013-01-31 05:32:00,37.9,25.7,28.69,North,0,3.5,0.0,61,0.00,,SKC,0.01,WeatherDisplay:10.37,2013-01-31 10:32:00,
2013-01-31 05:37:00,37.9,25.3,28.70,NW,315,5.8,5.8,60,0.00,,SKC,0.01,WeatherDisplay:10.37,2013-01-31 10:37:00,
2013-01-31 05:42:00,37.9,26.1,28.70,North,0,2.3,2.3,62,0.00,,SKC,0.01,WeatherDisplay:10.37,2013-01-31 10:42:00,
2013-01-31 05:47:00,37.9,25.7,28.70,North,0,5.8,5.8,61,0.00,,SKC,0.01,WeatherDisplay:10.37,2013-01-31 10:47:00,
2013-01-31 05:52:00,37.8,27.4,28.71,North,0,4.6,4.6,66,0.00,,SKC,0.01,WeatherDisplay:10.37,2013-01-31 10:52:00,
2013-01-31 05:57:00,37.0,27.8,28.71,NE,45,5.8,5.8,69,0.00,,SKC,0.01,WeatherDisplay:10.37,2013-01-31 10:57:00,
2013-01-31 06:02:00,36.5,26.9,28.72,North,0,3.5,3.5,68,0.00,,SKC,0.01,WeatherDisplay:10.37,2013-01-31 11:02:00,
2013-01-31 06:07:00,36.1,27.3,28.72,North,0,5.8,5.8,70,0.00,,SKC,0.01,WeatherDisplay:10.37,2013-01-31 11:07:00,
2013-01-31 06:12:00,36.0,27.5,28.72,North,0,4.6,4.6,71,0.00,,SKC,0.01,WeatherDisplay:10.37,2013-01-31 11:12:00,
2013-01-31 06:17:00,35.8,27.3,28.73,NW,315,3.5,3.5,71,0.00,,SKC,0.01,WeatherDisplay:10.37,2013-01-31 11:17:00,
2013-01-31 06:22:00,35.6,27.5,28.73,NW,315,3.5,0.0,72,0.00,,SKC,0.01,WeatherDisplay:10.37,2013-01-31 11:22:00,
2013-01-31 06:27:00,35.6,27.1,28.73,NE,45,6.9,6.9,71,0.00,,SKC,0.01,WeatherDisplay:10.37,2013-01-31 11:27:00,
2013-01-31 06:32:00,35.6,26.8,28.73,NE,45,2.3,2.3,70,0.00,,SKC,0.01,WeatherDisplay:10.37,2013-01-31 11:32:00,
2013-01-31 06:37:00,35.6,25.7,28.74,North,0,3.5,3.5,67,0.00,,SKC,0.01,WeatherDisplay:10.37,2013-01-31 11:37:00,
2013-01-31 06:42:00,35.8,25.5,28.75,North,0,3.5,3.5,66,0.00,,SKC,0.01,WeatherDisplay:10.37,2013-01-31 11:42:00,
2013-01-31 06:48:00,35.8,25.2,28.75,East,90,3.5,3.5,65,0.00,,SKC,0.01,WeatherDisplay:10.37,2013-01-31 11:48:00,
2013-01-31 06:53:00,35.8,25.2,28.75,NW,315,4.6,4.6,65,0.00,,SKC,0.01,WeatherDisplay:10.37,2013-01-31 11:53:00,
2013-01-31 06:58:00,35.8,25.2,28.76,North,0,3.5,0.0,65,0.00,,SKC,0.01,WeatherDisplay:10.37,2013-01-31 11:58:00,
2013-01-31 07:03:00,35.8,25.5,28.76,South,180,3.5,3.5,66,0.00,,SKC,0.01,WeatherDisplay:10.37,2013-01-31 12:03:00,
2013-01-31 07:08:00,35.6,25.4,28.76,SE,135,3.5,3.5,66,0.00,,SKC,0.01,WeatherDisplay:10.37,2013-01-31 12:08:00,
2013-01-31 07:13:00,35.6,25.7,28.76,West,270,1.1,0.0,67,0.00,,SKC,0.01,WeatherDisplay:10.37,2013-01-31 12:13:00,
2013-01-31 07:18:00,35.4,25.5,28.77,SW,225,3.5,3.5,67,0.00,,SKC,0.01,WeatherDisplay:10.37,2013-01-31 12:18:00,
2013-01-31 07:23:00,35.2,25.0,28.78,South,180,2.3,0.0,66,0.00,,SKC,0.01,WeatherDisplay:10.37,2013-01-31 12:23:00,
2013-01-31 07:28:00,35.2,25.0,28.79,SSE,158,1.1,1.1,66,0.00,,SKC,0.01,WeatherDisplay:10.37,2013-01-31 12:28:00,
2013-01-31 07:33:00,35.1,24.8,28.79,South,180,1.1,0.0,66,0.00,,SKC,0.01,WeatherDisplay:10.37,2013-01-31 12:33:00,
2013-01-31 07:38:00,35.1,23.7,28.79,NE,45,2.3,0.0,63,0.00,,SKC,0.01,WeatherDisplay:10.37,2013-01-31 12:38:00,
2013-01-31 07:43:00,35.1,23.3,28.80,NNE,22,3.5,3.5,62,0.00,,SKC,0.01,WeatherDisplay:10.37,2013-01-31 12:43:00,
2013-01-31 07:48:00,35.1,23.3,28.80,East,90,1.1,0.0,62,0.00,,SKC,0.01,WeatherDisplay:10.37,2013-01-31 12:48:00,
2013-01-31 07:53:00,35.1,22.6,28.82,North,0,3.5,0.0,60,0.00,,SKC,0.01,WeatherDisplay:10.37,2013-01-31 12:53:00,
2013-01-31 07:58:00,35.8,22.4,28.82,North,0,1.1,0.0,58,0.00,,SKC,0.01,WeatherDisplay:10.37,2013-01-31 12:58:00,
2013-01-31 08:03:00,36.3,21.7,28.82,South,180,1.1,0.0,55,0.00,,SKC,0.01,WeatherDisplay:10.37,2013-01-31 13:03:00,
2013-01-31 08:08:00,37.0,22.8,28.83,East,90,1.1,0.0,56,0.00,,SKC,0.01,WeatherDisplay:10.37,2013-01-31 13:08:00,
2013-01-31 08:13:00,39.0,22.9,28.83,South,180,0.0,0.0,52,0.00,,SKC,0.01,WeatherDisplay:10.37,2013-01-31 13:13:00,
2013-01-31 08:18:00,40.1,23.4,28.82,North,0,1.1,0.0,51,0.00,,SKC,0.01,WeatherDisplay:10.37,2013-01-31 13:18:00,
2013-01-31 08:23:00,41.0,21.8,28.82,North,0,1.1,0.0,46,0.00,,SKC,0.01,WeatherDisplay:10.37,2013-01-31 13:23:00,
2013-01-31 08:28:00,41.0,21.3,28.82,South,180,1.1,0.0,45,0.00,,SKC,0.01,WeatherDisplay:10.37,2013-01-31 13:28:00,
2013-01-31 08:33:00,41.5,21.8,28.83,WNW,292,1.1,0.0,45,0.00,,SKC,0.01,WeatherDisplay:10.37,2013-01-31 13:33:00,
2013-01-31 08:38:00,41.5,21.8,28.83,SW,225,0.0,0.0,45,0.00,,SKC,0.01,WeatherDisplay:10.37,2013-01-31 13:38:00,
2013-01-31 08:43:00,40.8,21.6,28.83,North,0,1.1,0.0,46,0.00,,SKC,0.01,WeatherDisplay:10.37,2013-01-31 13:43:00,
2013-01-31 08:48:00,39.0,20.5,28.83,NW,315,1.1,0.0,47,0.00,,SKC,0.01,WeatherDisplay:10.37,2013-01-31 13:48:00,
2013-01-31 08:53:00,37.6,21.1,28.83,SW,225,3.5,3.5,51,0.00,,SKC,0.01,WeatherDisplay:10.37,2013-01-31 13:53:00,
2013-01-31 08:58:00,36.9,21.3,28.84,NE,45,3.5,3.5,53,0.00,,SKC,0.01,WeatherDisplay:10.37,2013-01-31 13:58:00,
2013-01-31 09:03:00,36.9,20.9,28.83,South,180,2.3,2.3,52,0.00,,SKC,0.01,WeatherDisplay:10.37,2013-01-31 14:03:00,
2013-01-31 09:08:00,40.3,24.0,28.83,NE,45,2.3,0.0,52,0.00,,SKC,0.01,WeatherDisplay:10.37,2013-01-31 14:08:00,
2013-01-31 09:13:00,42.4,23.6,28.84,South,180,1.1,0.0,47,0.00,,SKC,0.01,WeatherDisplay:10.37,2013-01-31 14:13:00,
2013-01-31 09:18:00,43.7,23.7,28.83,SW,225,1.1,0.0,45,0.00,,SKC,0.01,WeatherDisplay:10.37,2013-01-31 14:18:00,
2013-01-31 09:23:00,44.2,23.1,28.84,West,270,1.1,0.0,43,0.00,,SKC,0.01,WeatherDisplay:10.37,2013-01-31 14:23:00,
2013-01-31 09:28:00,44.6,23.5,28.84,East,90,1.1,0.0,43,0.00,,SKC,0.01,WeatherDisplay:10.37,2013-01-31 14:28:00,
2013-01-31 09:33:00,45.1,23.4,28.83,South,180,1.1,0.0,42,0.00,,SKC,0.01,WeatherDisplay:10.37,2013-01-31 14:33:00,
2013-01-31 09:38:00,45.1,22.8,28.84,SE,135,1.1,0.0,41,0.00,,SKC,0.01,WeatherDisplay:10.37,2013-01-31 14:38:00,
2013-01-31 09:43:00,44.8,21.3,28.84,SW,225,1.1,0.0,39,0.00,,SKC,0.01,WeatherDisplay:10.37,2013-01-31 14:43:00,
2013-01-31 09:48:00,46.0,23.0,28.84,SW,225,1.1,0.0,40,0.00,,SKC,0.01,WeatherDisplay:10.37,2013-01-31 14:48:00,
2013-01-31 09:53:00,46.4,21.5,28.84,NE,45,1.1,0.0,37,0.00,,SKC,0.01,WeatherDisplay:10.37,2013-01-31 14:53:00,
2013-01-31 09:58:00,47.3,22.3,28.84,West,270,1.1,0.0,37,0.00,,SKC,0.01,WeatherDisplay:10.37,2013-01-31 14:58:00,
2013-01-31 10:03:00,46.8,21.2,28.84,South,180,1.1,0.0,36,0.00,,SKC,0.01,WeatherDisplay:10.37,2013-01-31 15:03:00,
2013-01-31 10:08:00,47.5,23.1,28.85,East,90,0.7,0.0,38,0.00,,SKC,0.01,WeatherDisplay:10.37,2013-01-31 15:08:00,
2013-01-31 10:13:00,47.1,23.4,28.85,NE,45,1.1,0.0,39,0.00,,SKC,0.01,WeatherDisplay:10.37,2013-01-31 15:13:00,
2013-01-31 10:18:00,46.9,22.6,28.85,North,0,1.1,0.0,38,0.00,,SKC,0.01,WeatherDisplay:10.37,2013-01-31 15:18:00,
2013-01-31 10:23:00,46.2,23.2,28.86,North,0,1.1,0.0,40,0.00,,SKC,0.01,WeatherDisplay:10.37,2013-01-31 15:23:00,
2013-01-31 10:28:00,46.2,21.3,28.86,NW,315,1.1,0.0,37,0.00,,SKC,0.01,WeatherDisplay:10.37,2013-01-31 15:28:00,
2013-01-31 10:33:00,46.9,22.6,28.85,West,270,1.1,0.0,38,0.00,,SKC,0.01,WeatherDisplay:10.37,2013-01-31 15:33:00,
2013-01-31 10:38:00,48.6,24.1,28.86,North,0,1.1,0.0,38,0.00,,SKC,0.01,WeatherDisplay:10.37,2013-01-31 15:38:00,
2013-01-31 10:43:00,48.2,21.8,28.86,NW,315,0.0,0.0,35,0.00,,SKC,0.01,WeatherDisplay:10.37,2013-01-31 15:43:00,
2013-01-31 10:48:00,47.3,22.3,28.86,SW,225,1.1,0.0,37,0.00,,SKC,0.01,WeatherDisplay:10.37,2013-01-31 15:48:00,
2013-01-31 10:53:00,47.3,22.3,28.86,SW,225,0.0,0.0,37,0.00,,SKC,0.01,WeatherDisplay:10.37,2013-01-31 15:53:00,
2013-01-31 10:58:00,47.7,22.6,28.86,North,0,1.1,0.0,37,0.00,,SKC,0.01,WeatherDisplay:10.37,2013-01-31 15:58:00,
2013-01-31 11:03:00,47.5,23.1,28.86,South,180,1.1,0.0,38,0.00,,SKC,0.01,WeatherDisplay:10.37,2013-01-31 16:03:00,
2013-01-31 11:08:00,47.7,21.3,28.86,West,270,1.1,0.0,35,0.00,,SKC,0.01,WeatherDisplay:10.37,2013-01-31 16:08:00,
2013-01-31 11:13:00,47.1,21.5,28.86,NW,315,0.0,0.0,36,0.00,,SKC,0.01,WeatherDisplay:10.37,2013-01-31 16:13:00,
2013-01-31 11:18:00,47.3,21.0,28.87,SSE,158,1.1,0.0,35,0.00,,SKC,0.01,WeatherDisplay:10.37,2013-01-31 16:18:00,
2013-01-31 11:23:00,46.4,20.2,28.86,SW,225,1.1,0.0,35,0.00,,SKC,0.01,WeatherDisplay:10.37,2013-01-31 16:23:00,
2013-01-31 11:28:00,45.7,18.9,28.86,South,180,1.1,0.0,34,0.00,,SKC,0.01,WeatherDisplay:10.37,2013-01-31 16:28:00,
2013-01-31 11:33:00,45.7,19.6,28.86,NE,45,1.1,0.0,35,0.00,,SKC,0.01,WeatherDisplay:10.37,2013-01-31 16:33:00,
2013-01-31 11:38:00,45.1,18.4,28.86,South,180,1.1,0.0,34,0.00,,SKC,0.01,WeatherDisplay:10.37,2013-01-31 16:38:00,
2013-01-31 11:43:00,45.1,19.1,28.85,North,0,1.1,0.0,35,0.00,,SKC,0.01,WeatherDisplay:10.37,2013-01-31 16:43:00,
2013-01-31 11:48:00,45.3,19.2,28.86,SW,225,1.1,1.1,35,0.00,,SKC,0.01,WeatherDisplay:10.37,2013-01-31 16:48:00,
2013-01-31 11:53:00,45.3,19.9,28.86,South,180,1.1,0.0,36,0.00,,SKC,0.01,WeatherDisplay:10.37,2013-01-31 16:53:00,
2013-01-31 11:58:00,45.5,18.0,28.86,SE,135,0.0,0.0,33,0.00,,SKC,0.01,WeatherDisplay:10.37,2013-01-31 16:58:00,
2013-01-31 12:03:00,45.7,18.9,28.86,North,0,1.1,0.0,34,0.00,,SKC,0.01,WeatherDisplay:10.37,2013-01-31 17:03:00,
2013-01-31 12:09:00,46.8,19.8,28.87,NE,45,1.1,0.0,34,0.00,,SKC,0.01,WeatherDisplay:10.37,2013-01-31 17:09:00,
2013-01-31 12:14:00,46.6,19.0,28.87,WNW,292,1.1,0.0,33,0.00,,SKC,0.01,WeatherDisplay:10.37,2013-01-31 17:14:00,
2013-01-31 12:19:00,45.5,17.3,28.86,NW,315,1.1,0.0,32,0.00,,SKC,0.01,WeatherDisplay:10.37,2013-01-31 17:19:00,
2013-01-31 12:24:00,44.6,19.9,28.87,North,0,1.1,0.0,37,0.00,,SKC,0.01,WeatherDisplay:10.37,2013-01-31 17:24:00,
2013-01-31 12:29:00,44.4,18.4,28.86,South,180,1.1,1.1,35,0.00,,SKC,0.01,WeatherDisplay:10.37,2013-01-31 17:29:00,
2013-01-31 12:34:00,44.2,21.4,28.86,SW,225,3.5,3.5,40,0.00,,SKC,0.01,WeatherDisplay:10.37,2013-01-31 17:34:00,
2013-01-31 12:39:00,46.4,22.1,28.85,North,0,1.1,1.1,38,0.00,,SKC,0.01,WeatherDisplay:10.37,2013-01-31 17:39:00,
2013-01-31 12:44:00,45.9,19.7,28.85,NW,315,1.1,0.0,35,0.00,,SKC,0.01,WeatherDisplay:10.37,2013-01-31 17:44:00,
2013-01-31 12:49:00,46.2,20.7,28.85,South,180,1.1,0.0,36,0.00,,SKC,0.01,WeatherDisplay:10.37,2013-01-31 17:49:00,
2013-01-31 12:54:00,48.0,21.6,28.85,North,0,1.1,0.0,35,0.00,,SKC,0.01,WeatherDisplay:10.37,2013-01-31 17:54:00,
2013-01-31 12:59:00,47.7,20.6,28.85,SW,225,1.1,0.0,34,0.00,,SKC,0.01,WeatherDisplay:10.37,2013-01-31 17:59:00,
2013-01-31 13:04:00,45.3,18.6,28.85,SW,225,1.1,0.0,34,0.00,,SKC,0.01,WeatherDisplay:10.37,2013-01-31 18:04:00,
2013-01-31 13:09:00,45.7,20.2,28.85,NE,45,1.1,0.0,36,0.00,,SKC,0.01,WeatherDisplay:10.37,2013-01-31 18:09:00,
2013-01-31 13:14:00,46.9,21.3,28.85,NE,45,1.1,0.0,36,0.00,,SKC,0.01,WeatherDisplay:10.37,2013-01-31 18:14:00,
2013-01-31 13:19:00,47.3,21.7,28.84,South,180,1.1,0.0,36,0.00,,SKC,0.01,WeatherDisplay:10.37,2013-01-31 18:19:00,
2013-01-31 13:24:00,48.2,21.8,28.85,NW,315,1.1,0.0,35,0.00,,SKC,0.01,WeatherDisplay:10.37,2013-01-31 18:24:00,
2013-01-31 13:29:00,47.3,21.7,28.85,SE,135,1.1,0.0,36,0.00,,SKC,0.01,WeatherDisplay:10.37,2013-01-31 18:29:00,
2013-01-31 13:34:00,46.9,21.3,28.85,North,0,1.1,0.0,36,0.00,,SKC,0.01,WeatherDisplay:10.37,2013-01-31 18:34:00,
2013-01-31 13:39:00,45.1,18.4,28.85,NW,315,2.3,0.0,34,0.00,,SKC,0.01,WeatherDisplay:10.37,2013-01-31 18:39:00,
2013-01-31 13:44:00,45.1,19.1,28.85,NW,315,1.1,0.0,35,0.00,,SKC,0.01,WeatherDisplay:10.37,2013-01-31 18:44:00,
2013-01-31 13:49:00,45.1,19.7,28.86,North,0,2.3,2.3,36,0.00,,SKC,0.01,WeatherDisplay:10.37,2013-01-31 18:49:00,
2013-01-31 13:54:00,44.4,17.8,28.87,North,0,2.3,0.0,34,0.00,,SKC,0.01,WeatherDisplay:10.37,2013-01-31 18:54:00,
2013-01-31 13:59:00,43.7,19.1,28.86,East,90,4.6,4.6,37,0.00,,SKC,0.01,WeatherDisplay:10.37,2013-01-31 18:59:00,
2013-01-31 14:04:00,44.1,19.4,28.86,North,0,3.5,3.5,37,0.00,,SKC,0.01,WeatherDisplay:10.37,2013-01-31 19:04:00,
2013-01-31 14:09:00,43.5,17.6,28.86,West,270,3.5,3.5,35,0.00,,SKC,0.01,WeatherDisplay:10.37,2013-01-31 19:09:00,
2013-01-31 14:14:00,43.7,20.9,28.86,NE,45,5.8,5.8,40,0.00,,SKC,0.01,WeatherDisplay:10.37,2013-01-31 19:14:00,
2013-01-31 14:19:00,43.3,19.4,28.86,North,0,5.8,5.8,38,0.00,,SKC,0.01,WeatherDisplay:10.37,2013-01-31 19:19:00,
2013-01-31 14:24:00,43.0,17.8,28.86,North,0,8.1,8.1,36,0.00,,SKC,0.01,WeatherDisplay:10.37,2013-01-31 19:24:00,
2013-01-31 14:29:00,42.8,18.9,28.87,North,0,8.1,8.1,38,0.00,,SKC,0.01,WeatherDisplay:10.37,2013-01-31 19:29:00,
2013-01-31 14:34:00,43.0,20.9,28.87,NW,315,8.1,8.1,41,0.00,,SKC,0.01,WeatherDisplay:10.37,2013-01-31 19:34:00,
2013-01-31 14:39:00,43.2,19.8,28.87,North,0,10.4,10.4,39,0.00,,SKC,0.01,WeatherDisplay:10.37,2013-01-31 19:39:00,
2013-01-31 14:44:00,42.8,19.5,28.87,South,180,10.4,10.4,39,0.00,,SKC,0.01,WeatherDisplay:10.37,2013-01-31 19:44:00,
2013-01-31 14:49:00,43.2,21.6,28.87,NW,315,5.8,5.8,42,0.00,,SKC,0.01,WeatherDisplay:10.37,2013-01-31 19:49:00,
2013-01-31 14:54:00,43.3,21.8,28.88,NE,45,9.2,9.2,42,0.00,,SKC,0.01,WeatherDisplay:10.37,2013-01-31 19:54:00,
2013-01-31 14:59:00,43.0,18.5,28.88,NW,315,15.0,15.0,37,0.00,,SKC,0.01,WeatherDisplay:10.37,2013-01-31 19:59:00,
2013-01-31 15:04:00,43.5,20.8,28.88,SE,135,4.6,4.6,40,0.00,,SKC,0.01,WeatherDisplay:10.37,2013-01-31 20:04:00,
2013-01-31 15:09:00,43.7,19.1,28.88,SE,135,15.0,15.0,37,0.00,,SKC,0.01,WeatherDisplay:10.37,2013-01-31 20:09:00,
2013-01-31 15:14:00,43.2,18.6,28.88,NW,315,9.2,9.2,37,0.00,,SKC,0.01,WeatherDisplay:10.37,2013-01-31 20:14:00,
2013-01-31 15:19:00,42.6,18.1,28.89,East,90,8.1,8.1,37,0.00,,SKC,0.01,WeatherDisplay:10.37,2013-01-31 20:19:00,
2013-01-31 15:24:00,41.9,18.7,28.88,NE,45,9.2,9.2,39,0.00,,SKC,0.01,WeatherDisplay:10.37,2013-01-31 20:24:00,
2013-01-31 15:29:00,41.9,19.3,28.88,South,180,5.8,5.8,40,0.00,,SKC,0.01,WeatherDisplay:10.37,2013-01-31 20:29:00,
2013-01-31 15:34:00,41.9,19.9,28.88,SW,225,8.1,8.1,41,0.00,,SKC,0.01,WeatherDisplay:10.37,2013-01-31 20:34:00,
2013-01-31 15:39:00,42.1,19.5,28.88,NE,45,4.6,4.6,40,0.00,,SKC,0.01,WeatherDisplay:10.37,2013-01-31 20:39:00,
2013-01-31 15:44:00,42.1,18.9,28.88,North,0,5.8,5.8,39,0.00,,SKC,0.01,WeatherDisplay:10.37,2013-01-31 20:44:00,
2013-01-31 15:49:00,42.3,19.6,28.88,NE,45,2.3,2.3,40,0.00,,SKC,0.01,WeatherDisplay:10.37,2013-01-31 20:49:00,
2013-01-31 15:54:00,42.3,19.0,28.89,NE,45,5.8,5.8,39,0.00,,SKC,0.01,WeatherDisplay:10.37,2013-01-31 20:54:00,
2013-01-31 15:59:00,42.1,18.9,28.90,North,0,6.9,6.9,39,0.00,,SKC,0.01,WeatherDisplay:10.37,2013-01-31 20:59:00,
2013-01-31 16:04:00,42.3,18.4,28.88,East,90,8.1,8.1,38,0.00,,SKC,0.01,WeatherDisplay:10.37,2013-01-31 21:04:00,
2013-01-31 16:09:00,42.1,18.9,28.89,East,90,5.8,5.8,39,0.00,,SKC,0.01,WeatherDisplay:10.37,2013-01-31 21:09:00,
2013-01-31 16:14:00,41.9,17.5,28.89,NW,315,5.8,5.8,37,0.00,,SKC,0.01,WeatherDisplay:10.37,2013-01-31 21:14:00,
2013-01-31 16:19:00,41.7,16.7,28.89,North,0,6.9,6.9,36,0.00,,SKC,0.01,WeatherDisplay:10.37,2013-01-31 21:19:00,
2013-01-31 16:24:00,41.5,17.2,28.89,SE,135,5.8,5.8,37,0.00,,SKC,0.01,WeatherDisplay:10.37,2013-01-31 21:24:00,
2013-01-31 16:29:00,41.5,17.8,28.89,NE,45,4.6,4.6,38,0.00,,SKC,0.01,WeatherDisplay:10.37,2013-01-31 21:29:00,
2013-01-31 16:34:00,41.4,17.6,28.89,West,270,5.8,5.8,38,0.00,,SKC,0.01,WeatherDisplay:10.37,2013-01-31 21:34:00,
2013-01-31 16:39:00,41.4,18.8,28.89,NE,45,3.5,3.5,40,0.00,,SKC,0.01,WeatherDisplay:10.37,2013-01-31 21:39:00,
2013-01-31 16:44:00,41.4,18.2,28.89,ESE,112,9.2,9.2,39,0.00,,SKC,0.01,WeatherDisplay:10.37,2013-01-31 21:44:00,
2013-01-31 16:49:00,41.4,18.8,28.89,North,0,5.8,5.8,40,0.00,,SKC,0.01,WeatherDisplay:10.37,2013-01-31 21:49:00,
2013-01-31 16:54:00,41.2,19.2,28.88,NNE,22,5.8,5.8,41,0.00,,SKC,0.01,WeatherDisplay:10.37,2013-01-31 21:54:00,
2013-01-31 16:59:00,41.2,19.8,28.89,NW,315,3.5,3.5,42,0.00,,SKC,0.01,WeatherDisplay:10.37,2013-01-31 21:59:00,
2013-01-31 17:04:00,41.2,19.2,28.89,NW,315,2.3,2.3,41,0.00,,SKC,0.01,WeatherDisplay:10.37,2013-01-31 22:04:00,
2013-01-31 17:09:00,41.0,19.6,28.90,NE,45,4.6,0.0,42,0.00,,SKC,0.01,WeatherDisplay:10.37,2013-01-31 22:09:00,
2013-01-31 17:14:00,40.8,20.0,28.89,SE,135,2.3,2.3,43,0.00,,SKC,0.01,WeatherDisplay:10.37,2013-01-31 22:14:00,
2013-01-31 17:19:00,40.5,20.2,28.89,South,180,2.3,2.3,44,0.00,,SKC,0.01,WeatherDisplay:10.37,2013-01-31 22:19:00,
2013-01-31 17:24:00,40.3,20.1,28.89,South,180,3.5,3.5,44,0.00,,SKC,0.01,WeatherDisplay:10.37,2013-01-31 22:24:00,
2013-01-31 17:29:00,40.5,19.7,28.89,WNW,292,4.6,4.6,43,0.00,,SKC,0.01,WeatherDisplay:10.37,2013-01-31 22:29:00,
2013-01-31 17:34:00,40.5,19.7,28.89,WNW,292,4.6,4.6,43,0.00,,SKC,0.01,WeatherDisplay:10.37,2013-01-31 22:34:00,
2013-01-31 17:39:00,40.3,20.1,28.89,West,270,4.6,4.6,44,0.00,,SKC,0.01,WeatherDisplay:10.37,2013-01-31 22:39:00,
2013-01-31 17:44:00,40.1,19.9,28.90,NE,45,1.1,0.0,44,0.00,,SKC,0.01,WeatherDisplay:10.37,2013-01-31 22:44:00,
2013-01-31 17:49:00,39.7,20.1,28.90,NW,315,2.3,2.3,45,0.00,,SKC,0.01,WeatherDisplay:10.37,2013-01-31 22:49:00,
2013-01-31 17:54:00,39.6,19.9,28.90,SE,135,5.8,0.0,45,0.00,,SKC,0.01,WeatherDisplay:10.37,2013-01-31 22:54:00,
2013-01-31 18:00:00,39.2,19.6,28.90,North,0,3.5,0.0,45,0.00,,SKC,0.01,WeatherDisplay:10.37,2013-01-31 23:00:00,
2013-01-31 18:05:00,39.2,20.1,28.90,South,180,2.3,0.0,46,0.00,,SKC,0.01,WeatherDisplay:10.37,2013-01-31 23:05:00,
2013-01-31 18:10:00,39.2,19.6,28.90,West,270,1.1,0.0,45,0.00,,SKC,0.01,WeatherDisplay:10.37,2013-01-31 23:10:00,
2013-01-31 18:15:00,39.0,20.0,28.90,NW,315,1.1,1.1,46,0.00,,SKC,0.01,WeatherDisplay:10.37,2013-01-31 23:15:00,
2013-01-31 18:20:00,38.8,19.8,28.90,NW,315,2.3,2.3,46,0.00,,SKC,0.01,WeatherDisplay:10.37,2013-01-31 23:20:00,
2013-01-31 18:25:00,38.7,19.6,28.90,SW,225,1.1,1.1,46,0.00,,SKC,0.01,WeatherDisplay:10.37,2013-01-31 23:25:00,
2013-01-31 18:30:00,38.7,20.1,28.90,SW,225,3.5,3.5,47,0.00,,SKC,0.01,WeatherDisplay:10.37,2013-01-31 23:30:00,
2013-01-31 18:35:00,38.5,20.5,28.91,SW,225,1.1,1.1,48,0.00,,SKC,0.01,WeatherDisplay:10.37,2013-01-31 23:35:00,
2013-01-31 18:40:00,38.3,20.3,28.91,NW,315,6.9,6.9,48,0.00,,SKC,0.01,WeatherDisplay:10.37,2013-01-31 23:40:00,
2013-01-31 18:45:00,38.7,19.6,28.91,North,0,2.3,2.3,46,0.00,,SKC,0.01,WeatherDisplay:10.37,2013-01-31 23:45:00,
2013-01-31 18:50:00,38.7,20.1,28.92,West,270,1.1,1.1,47,0.00,,SKC,0.01,WeatherDisplay:10.37,2013-01-31 23:50:00,
2013-01-31 18:55:00,38.5,20.5,28.92,South,180,2.3,2.3,48,0.00,,SKC,0.01,WeatherDisplay:10.37,2013-01-31 23:55:00,
2013-01-31 19:00:00,38.3,20.3,28.92,SW,225,2.3,2.3,48,0.00,,SKC,0.01,WeatherDisplay:10.37,2013-02-01 00:00:00,
2013-01-31 19:05:00,38.3,20.3,28.92,NE,45,1.1,1.1,48,0.00,,SKC,0.01,WeatherDisplay:10.37,2013-02-01 00:05:00,
2013-01-31 19:10:00,38.1,20.1,28.92,South,180,2.3,2.3,48,0.00,,SKC,0.01,WeatherDisplay:10.37,2013-02-01 00:10:00,
2013-01-31 19:15:00,38.1,20.1,28.92,South,180,1.1,0.0,48,0.00,,SKC,0.01,WeatherDisplay:10.37,2013-02-01 00:15:00,
2013-01-31 19:20:00,38.1,20.6,28.93,South,180,1.1,1.1,49,0.00,,SKC,0.01,WeatherDisplay:10.37,2013-02-01 00:20:00,
2013-01-31 19:25:00,38.3,20.3,28.93,South,180,1.6,1.6,48,0.00,,SKC,0.01,WeatherDisplay:10.37,2013-02-01 00:25:00,
2013-01-31 19:30:00,38.1,20.1,28.93,NE,45,1.1,0.0,48,0.00,,SKC,0.01,WeatherDisplay:10.37,2013-02-01 00:30:00,
2013-01-31 19:35:00,37.9,20.5,28.94,South,180,1.1,0.0,49,0.00,,SKC,0.01,WeatherDisplay:10.37,2013-02-01 00:35:00,
2013-01-31 19:40:00,37.9,20.5,28.94,East,90,3.5,0.0,49,0.00,,SKC,0.01,WeatherDisplay:10.37,2013-02-01 00:40:00,
2013-01-31 19:45:00,37.6,20.6,28.94,North,0,1.1,1.1,50,0.00,,SKC,0.01,WeatherDisplay:10.37,2013-02-01 00:45:00,
2013-01-31 19:50:00,37.4,20.4,28.93,NW,315,2.3,2.3,50,0.00,,SKC,0.01,WeatherDisplay:10.37,2013-02-01 00:50:00,
2013-01-31 19:55:00,37.4,20.4,28.92,SE,135,3.5,0.0,50,0.00,,SKC,0.01,WeatherDisplay:10.37,2013-02-01 00:55:00,
2013-01-31 20:00:00,37.4,20.4,28.92,South,180,2.3,0.0,50,0.00,,SKC,0.01,WeatherDisplay:10.37,2013-02-01 01:00:00,
2013-01-31 20:05:00,37.0,21.0,28.92,North,0,1.1,1.1,52,0.00,,SKC,0.01,WeatherDisplay:10.37,2013-02-01 01:05:00,
2013-01-31 20:10:00,36.3,19.4,28.92,NW,315,2.3,0.0,50,0.00,,SKC,0.01,WeatherDisplay:10.37,2013-02-01 01:10:00,
2013-01-31 20:15:00,36.0,19.1,28.93,NW,315,1.1,0.0,50,0.00,,SKC,0.01,WeatherDisplay:10.37,2013-02-01 01:15:00,
2013-01-31 20:20:00,35.8,18.5,28.93,NW,315,1.1,0.0,49,0.00,,SKC,0.01,WeatherDisplay:10.37,2013-02-01 01:20:00,
2013-01-31 20:25:00,35.6,18.3,28.92,NW,315,1.1,0.0,49,0.00,,SKC,0.01,WeatherDisplay:10.37,2013-02-01 01:25:00,
2013-01-31 20:30:00,35.4,19.1,28.93,NW,315,1.1,0.0,51,0.00,,SKC,0.01,WeatherDisplay:10.37,2013-02-01 01:30:00,
2013-01-31 20:35:00,35.1,18.7,28.92,South,180,1.1,0.0,51,0.00,,SKC,0.01,WeatherDisplay:10.37,2013-02-01 01:35:00,
2013-01-31 20:40:00,34.9,19.0,28.92,North,0,1.1,0.0,52,0.00,,SKC,0.01,WeatherDisplay:10.37,2013-02-01 01:40:00,
2013-01-31 20:45:00,34.7,19.3,28.92,North,0,1.1,0.0,53,0.00,,SKC,0.01,WeatherDisplay:10.37,2013-02-01 01:45:00,
2013-01-31 20:50:00,34.5,19.6,28.94,North,0,2.3,2.3,54,0.00,,SKC,0.01,WeatherDisplay:10.37,2013-02-01 01:50:00,
2013-01-31 20:55:00,34.3,19.4,28.94,NW,315,1.1,0.0,54,0.00,,SKC,0.01,WeatherDisplay:10.37,2013-02-01 01:55:00,
2013-01-31 21:00:00,34.2,19.2,28.93,West,270,1.1,1.1,54,0.00,,SKC,0.01,WeatherDisplay:10.37,2013-02-01 02:00:00,
2013-01-31 21:05:00,34.2,19.2,28.93,West,270,1.1,1.1,54,0.00,,SKC,0.01,WeatherDisplay:10.37,2013-02-01 02:05:00,
2013-01-31 21:10:00,33.6,20.4,28.93,North,0,1.1,0.0,58,0.00,,SKC,0.01,WeatherDisplay:10.37,2013-02-01 02:10:00,
2013-01-31 21:15:00,33.8,20.6,28.93,North,0,1.1,0.0,58,0.00,,SKC,0.01,WeatherDisplay:10.37,2013-02-01 02:15:00,
2013-01-31 21:20:00,33.8,20.6,28.93,NW,315,1.1,0.0,58,0.00,,SKC,0.01,WeatherDisplay:10.37,2013-02-01 02:20:00,
2013-01-31 21:25:00,34.0,20.7,28.93,West,270,1.1,0.0,58,0.00,,SKC,0.01,WeatherDisplay:10.37,2013-02-01 02:25:00,
2013-01-31 21:30:00,34.2,20.9,28.93,South,180,3.5,0.0,58,0.00,,SKC,0.01,WeatherDisplay:10.37,2013-02-01 02:30:00,
2013-01-31 21:35:00,34.9,20.8,28.93,South,180,1.1,1.1,56,0.00,,SKC,0.01,WeatherDisplay:10.37,2013-02-01 02:35:00,
2013-01-31 21:40:00,35.6,20.1,28.93,West,270,3.5,3.5,53,0.00,,SKC,0.01,WeatherDisplay:10.37,2013-02-01 02:40:00,
2013-01-31 21:45:00,36.0,20.0,28.93,East,90,3.5,3.5,52,0.00,,SKC,0.01,WeatherDisplay:10.37,2013-02-01 02:45:00,
2013-01-31 21:50:00,36.5,20.1,28.93,East,90,4.6,4.6,51,0.00,,SKC,0.01,WeatherDisplay:10.37,2013-02-01 02:50:00,
2013-01-31 21:55:00,36.9,22.2,28.93,South,180,2.3,2.3,55,0.00,,SKC,0.01,WeatherDisplay:10.37,2013-02-01 02:55:00,
2013-01-31 22:00:00,37.0,22.4,28.94,East,90,1.1,1.1,55,0.00,,SKC,0.01,WeatherDisplay:10.37,2013-02-01 03:00:00,
2013-01-31 22:05:00,37.2,22.1,28.93,NE,45,1.1,0.0,54,0.00,,SKC,0.01,WeatherDisplay:10.37,2013-02-01 03:05:00,
2013-01-31 22:10:00,37.6,22.0,28.93,North,0,4.6,4.6,53,0.00,,SKC,0.01,WeatherDisplay:10.37,2013-02-01 03:10:00,
2013-01-31 22:15:00,37.8,22.1,28.92,NE,45,2.3,2.3,53,0.00,,SKC,0.01,WeatherDisplay:10.37,2013-02-01 03:15:00,
2013-01-31 22:20:00,37.9,21.9,28.93,South,180,2.3,2.3,52,0.00,,SKC,0.01,WeatherDisplay:10.37,2013-02-01 03:20:00,
2013-01-31 22:25:00,38.1,22.0,28.93,South,180,1.1,2.2,52,0.00,,SKC,0.01,WeatherDisplay:10.37,2013-02-01 03:25:00,
2013-01-31 22:30:00,38.1,21.6,28.92,NE,45,1.1,0.0,51,0.00,,SKC,0.01,WeatherDisplay:10.37,2013-02-01 03:30:00,
2013-01-31 22:35:00,38.1,21.6,28.92,West,270,1.1,0.0,51,0.00,,SKC,0.01,WeatherDisplay:10.37,2013-02-01 03:35:00,
2013-01-31 22:40:00,37.9,21.4,28.92,NW,315,1.1,0.0,51,0.00,,SKC,0.01,WeatherDisplay:10.37,2013-02-01 03:40:00,
2013-01-31 22:45:00,37.6,21.1,28.92,West,270,1.1,0.0,51,0.00,,SKC,0.01,WeatherDisplay:10.37,2013-02-01 03:45:00,
2013-01-31 22:50:00,37.4,21.4,28.92,NW,315,1.1,0.0,52,0.00,,SKC,0.01,WeatherDisplay:10.37,2013-02-01 03:50:00,
2013-01-31 22:55:00,37.0,21.0,28.92,SW,225,3.5,0.0,52,0.00,,SKC,0.01,WeatherDisplay:10.37,2013-02-01 03:55:00,
2013-01-31 23:00:00,36.7,18.8,28.92,NW,315,1.1,1.1,48,0.00,,SKC,0.01,WeatherDisplay:10.37,2013-02-01 04:00:00,
2013-01-31 23:05:00,36.7,18.8,28.91,NW,315,1.1,1.1,48,0.00,,SKC,0.01,WeatherDisplay:10.37,2013-02-01 04:05:00,
2013-01-31 23:10:00,36.5,19.1,28.92,SE,135,1.1,0.0,49,0.00,,SKC,0.01,WeatherDisplay:10.37,2013-02-01 04:10:00,
2013-01-31 23:15:00,36.3,19.0,28.92,SW,225,1.1,0.0,49,0.00,,SKC,0.01,WeatherDisplay:10.37,2013-02-01 04:15:00,
2013-01-31 23:20:00,36.1,19.3,28.91,NW,315,1.1,0.0,50,0.00,,SKC,0.01,WeatherDisplay:10.37,2013-02-01 04:20:00,
2013-01-31 23:25:00,36.0,19.1,28.92,SW,225,1.1,0.0,50,0.00,,SKC,0.01,WeatherDisplay:10.37,2013-02-01 04:25:00,
2013-01-31 23:30:00,35.8,19.4,28.91,North,0,1.1,1.1,51,0.00,,SKC,0.01,WeatherDisplay:10.37,2013-02-01 04:30:00,
2013-01-31 23:35:00,35.8,19.4,28.91,SE,135,1.1,1.1,51,0.00,,SKC,0.01,WeatherDisplay:10.37,2013-02-01 04:35:00,
2013-01-31 23:40:00,35.8,19.4,28.91,NE,45,1.1,0.0,51,0.00,,SKC,0.01,WeatherDisplay:10.37,2013-02-01 04:40:00,
2013-01-31 23:45:00,35.6,19.2,28.92,West,270,2.3,2.3,51,0.00,,SKC,0.01,WeatherDisplay:10.37,2013-02-01 04:45:00,
2013-01-31 23:50:00,35.6,19.2,28.92,North,0,1.1,0.0,51,0.00,,SKC,0.01,WeatherDisplay:10.37,2013-02-01 04:50:00,
2013-01-31 23:55:00,35.6,19.7,28.92,NW,315,1.1,0.0,52,0.00,,SKC,0.01,WeatherDisplay:10.37,2013-02-01 04:55:00,